createdAt,value
2024-05-09T00:00:43.547Z,6.79
2024-05-09T00:04:46.000Z,6.73
2024-05-09T00:08:48.320Z,6.60
2024-05-09T00:12:50.565Z,6.55
2024-05-09T00:16:52.835Z,6.64
2024-05-09T00:20:55.147Z,6.65
2024-05-09T00:24:57.421Z,6.64
2024-05-09T00:28:59.823Z,6.61
2024-05-09T00:33:02.239Z,6.59
2024-05-09T00:37:04.608Z,6.53
2024-05-09T00:41:06.910Z,6.48
2024-05-09T00:45:09.200Z,6.41
2024-05-09T00:49:12.932Z,6.32
2024-05-09T00:53:16.545Z,6.25
2024-05-09T00:57:18.868Z,6.21
2024-05-09T01:01:24.769Z,5.99
2024-05-09T01:05:27.193Z,5.80
2024-05-09T01:09:29.490Z,5.69
2024-05-09T01:13:31.780Z,5.72
2024-05-09T01:17:34.400Z,5.75
2024-05-09T01:21:41.521Z,5.78
2024-05-09T01:25:44.642Z,5.77
2024-05-09T01:29:47.122Z,5.77
2024-05-09T01:33:49.447Z,5.71
2024-05-09T01:37:52.756Z,5.76
2024-05-09T01:41:55.022Z,5.84
2024-05-09T01:46:16.482Z,5.85
2024-05-09T01:50:25.305Z,5.87
2024-05-09T01:54:37.263Z,5.73
2024-05-09T01:58:39.466Z,5.75
2024-05-09T02:02:45.044Z,5.68
2024-05-09T02:06:47.317Z,5.66
2024-05-09T02:10:50.655Z,5.54
2024-05-09T02:14:53.207Z,5.44
2024-05-09T02:18:55.477Z,5.45
2024-05-09T02:22:58.373Z,5.49
2024-05-09T02:27:00.647Z,5.47
2024-05-09T02:31:02.852Z,5.56
2024-05-09T02:35:05.387Z,5.59
2024-05-09T02:39:07.641Z,5.45
2024-05-09T02:43:12.794Z,5.35
2024-05-09T02:47:15.594Z,5.30
2024-05-09T02:51:17.981Z,5.21
2024-05-09T02:55:20.304Z,5.14
2024-05-09T02:59:22.824Z,5.13
2024-05-09T03:03:25.442Z,5.18
2024-05-09T03:07:27.917Z,5.27
2024-05-09T03:11:30.240Z,5.29
2024-05-09T03:15:33.160Z,5.23
2024-05-09T03:19:36.772Z,5.24
2024-05-09T03:23:41.685Z,5.14
2024-05-09T03:27:44.057Z,5.00
2024-05-09T03:31:46.431Z,4.95
2024-05-09T03:35:49.407Z,4.92
2024-05-09T03:39:51.999Z,4.90
2024-05-09T03:43:54.204Z,4.90
2024-05-09T03:47:56.632Z,4.97
2024-05-09T03:51:59.161Z,5.04
2024-05-09T03:56:03.070Z,5.07
2024-05-09T04:00:12.000Z,4.93
2024-05-09T04:04:19.924Z,4.85
2024-05-09T04:08:22.231Z,4.87
2024-05-09T04:12:24.527Z,4.92
2024-05-09T04:16:26.813Z,4.94
2024-05-09T04:20:37.130Z,5.17
2024-05-09T04:24:42.139Z,5.32
2024-05-09T04:28:44.469Z,5.77
2024-05-09T04:32:46.922Z,7.09
2024-05-09T04:36:49.296Z,9.39
2024-05-09T04:40:51.636Z,9.66
2024-05-09T04:44:56.522Z,10.20
2024-05-09T04:49:00.893Z,10.07
2024-05-09T04:53:03.581Z,11.20
2024-05-09T04:57:06.110Z,11.09
2024-05-09T05:01:08.516Z,10.77
2024-05-09T05:05:12.066Z,13.08
2024-05-09T05:09:14.475Z,15.71
2024-05-09T05:13:18.445Z,18.08
2024-05-09T05:17:21.580Z,19.99
2024-05-09T05:21:24.025Z,21.05
2024-05-09T05:25:26.386Z,21.64
2024-05-09T05:29:28.728Z,20.81
2024-05-09T05:33:31.253Z,18.29
2024-05-09T05:37:33.727Z,20.82
2024-05-09T05:41:36.074Z,22.41
2024-05-09T05:45:39.130Z,23.91
2024-05-09T05:49:41.763Z,25.62
2024-05-09T05:53:44.781Z,26.87
2024-05-09T05:57:47.178Z,27.81
2024-05-09T06:01:50.245Z,28.49
2024-05-09T06:05:52.559Z,29.14
2024-05-09T06:09:56.015Z,30.01
2024-05-09T06:13:58.545Z,30.59
2024-05-09T06:18:01.188Z,31.04
2024-05-09T06:22:03.990Z,31.51
2024-05-09T06:26:06.299Z,31.95
2024-05-09T06:30:14.415Z,31.94
2024-05-09T06:34:23.258Z,31.78
2024-05-09T06:38:26.631Z,31.60
2024-05-09T06:42:29.110Z,31.58
2024-05-09T06:46:31.425Z,31.78
2024-05-09T06:50:37.630Z,32.50
2024-05-09T06:54:41.528Z,32.17
2024-05-09T06:58:43.838Z,30.69
2024-05-09T07:02:46.260Z,29.18
2024-05-09T07:06:48.620Z,27.84
2024-05-09T07:10:50.992Z,23.76
2024-05-09T07:14:53.336Z,20.06
2024-05-09T07:18:55.889Z,18.02
2024-05-09T07:22:58.696Z,16.77
2024-05-09T07:27:01.943Z,16.14
2024-05-09T07:31:04.337Z,15.97
2024-05-09T07:35:06.718Z,15.89
2024-05-09T07:39:09.516Z,15.72
2024-05-09T07:43:12.961Z,15.65
2024-05-09T07:48:28.884Z,15.64
2024-05-09T07:53:14.348Z,15.61
2024-05-09T07:56:01.901Z,15.53
2024-05-09T08:00:06.033Z,15.42
2024-05-09T08:04:08.862Z,15.28
2024-05-09T08:08:11.466Z,15.22
2024-05-09T08:12:13.840Z,15.26
2024-05-09T08:16:16.223Z,15.42
2024-05-09T08:20:26.857Z,15.53
2024-05-09T08:24:35.661Z,15.44
2024-05-09T08:28:37.946Z,15.41
2024-05-09T08:32:40.699Z,15.37
2024-05-09T08:36:43.159Z,15.37
2024-05-09T08:40:45.683Z,15.41
2024-05-09T08:44:49.242Z,15.37
2024-05-09T08:48:52.825Z,15.40
2024-05-09T08:52:55.487Z,15.39
2024-05-09T08:56:58.249Z,15.46
2024-05-09T09:01:04.038Z,15.54
2024-05-09T09:05:11.220Z,15.58
2024-05-09T09:09:14.189Z,15.61
2024-05-09T09:13:16.348Z,15.60
2024-05-09T09:17:20.424Z,15.61
2024-05-09T09:21:22.714Z,15.51
2024-05-09T09:25:24.975Z,15.52
2024-05-09T09:29:27.307Z,15.50
2024-05-09T09:33:33.126Z,15.59
2024-05-09T09:37:38.008Z,15.82
2024-05-09T09:41:43.572Z,16.04
2024-05-09T09:45:49.805Z,16.16
2024-05-09T09:49:53.015Z,16.10
2024-05-09T09:53:56.440Z,16.11
2024-05-09T09:57:59.743Z,16.29
2024-05-09T10:02:02.466Z,16.46
2024-05-09T10:06:06.909Z,16.53
2024-05-09T10:10:13.999Z,16.67
2024-05-09T10:14:22.264Z,16.79
2024-05-09T10:18:28.396Z,16.77
2024-05-09T10:22:34.014Z,16.67
2024-05-09T10:26:37.457Z,16.72
2024-05-09T10:30:40.036Z,16.79
2024-05-09T10:34:47.139Z,16.90
2024-05-09T10:38:53.835Z,17.05
2024-05-09T10:42:56.876Z,17.16
2024-05-09T10:46:59.311Z,17.22
2024-05-09T10:51:01.711Z,17.21
2024-05-09T10:55:05.782Z,17.21
2024-05-09T10:59:08.214Z,17.15
2024-05-09T11:03:11.649Z,17.35
2024-05-09T11:07:16.371Z,17.50
2024-05-09T11:11:18.905Z,17.72
2024-05-09T11:15:26.684Z,17.67
2024-05-09T11:19:31.023Z,17.41
2024-05-09T11:23:34.611Z,17.11
2024-05-09T11:27:36.928Z,17.04
2024-05-09T11:31:48.886Z,17.23
2024-05-09T11:35:51.463Z,17.67
2024-05-09T11:39:54.205Z,17.59
2024-05-09T11:43:57.960Z,17.70
2024-05-09T11:48:00.440Z,17.58
2024-05-09T11:52:02.838Z,17.53
2024-05-09T11:56:05.422Z,17.73
2024-05-09T12:00:11.867Z,17.87
2024-05-09T12:04:14.627Z,18.09
2024-05-09T12:08:17.099Z,18.19
2024-05-09T12:12:19.375Z,18.21
2024-05-09T12:16:21.874Z,18.23
2024-05-09T12:20:32.371Z,18.19
2024-05-09T12:24:38.668Z,18.31
2024-05-09T12:28:40.931Z,18.34
2024-05-09T12:32:43.267Z,18.57
2024-05-09T12:36:45.714Z,18.56
2024-05-09T12:40:48.177Z,18.64
2024-05-09T12:44:50.443Z,18.54
2024-05-09T12:48:53.696Z,18.65
2024-05-09T12:52:56.308Z,18.71
2024-05-09T12:56:58.621Z,18.59
2024-05-09T13:01:01.164Z,18.72
2024-05-09T13:05:03.908Z,18.90
2024-05-09T13:09:06.398Z,18.95
2024-05-09T13:13:12.022Z,19.03
2024-05-09T13:17:14.451Z,18.81
2024-05-09T13:21:16.705Z,18.51
2024-05-09T13:25:19.100Z,18.41
2024-05-09T13:29:27.231Z,18.56
2024-05-09T13:33:29.720Z,18.80
2024-05-09T13:37:33.157Z,18.62
2024-05-09T13:41:35.434Z,18.47
2024-05-09T13:45:37.753Z,18.58
2024-05-09T13:49:40.201Z,18.57
2024-05-09T13:53:42.542Z,18.67
2024-05-09T13:57:44.947Z,18.85
2024-05-09T14:01:47.274Z,18.86
2024-05-09T14:05:51.181Z,19.05
2024-05-09T14:09:54.710Z,19.06
2024-05-09T14:13:57.120Z,19.17
2024-05-09T14:17:59.406Z,19.19
2024-05-09T14:22:01.822Z,19.17
2024-05-09T14:26:04.449Z,18.93
2024-05-09T14:30:14.920Z,18.88
2024-05-09T14:34:24.867Z,19.09
2024-05-09T14:38:27.754Z,19.07
2024-05-09T14:42:30.076Z,19.00
2024-05-09T14:46:32.375Z,18.97
2024-05-09T14:50:38.367Z,18.90
2024-05-09T14:54:42.476Z,18.89
2024-05-09T14:58:44.759Z,18.83
2024-05-09T15:02:48.024Z,18.93
2024-05-09T15:06:50.430Z,18.99
2024-05-09T15:10:52.955Z,19.08
2024-05-09T15:14:55.427Z,19.01
2024-05-09T15:23:00.155Z,18.57
2024-05-09T15:27:02.599Z,18.33
2024-05-09T15:31:05.072Z,18.30
2024-05-09T15:35:07.670Z,18.40
2024-05-09T15:39:10.020Z,18.49
2024-05-09T15:43:12.443Z,18.52
2024-05-09T15:47:14.999Z,18.51
2024-05-09T15:51:17.277Z,18.53
2024-05-09T15:55:19.598Z,18.57
2024-05-09T15:59:39.010Z,18.58
2024-05-09T16:03:41.466Z,18.59
2024-05-09T16:07:43.911Z,18.66
2024-05-09T16:11:46.188Z,18.60
2024-05-09T16:15:48.694Z,18.46
2024-05-09T16:19:51.124Z,18.45
2024-05-09T16:23:53.323Z,18.42
2024-05-09T16:27:55.736Z,18.32
2024-05-09T16:31:57.979Z,18.28
2024-05-09T16:36:00.385Z,18.30
2024-05-09T16:40:04.385Z,18.31
2024-05-09T16:44:08.041Z,18.28
2024-05-09T16:48:11.560Z,18.22
2024-05-09T16:52:15.126Z,18.22
2024-05-09T16:56:17.723Z,18.24
2024-05-09T17:00:31.025Z,18.14
2024-05-09T17:04:42.823Z,18.00
2024-05-09T17:08:45.384Z,17.93
2024-05-09T17:12:47.686Z,17.92
2024-05-09T17:16:50.024Z,17.87
2024-05-09T17:20:52.527Z,17.72
2024-05-09T17:24:54.853Z,17.63
2024-05-09T17:28:57.379Z,17.51
2024-05-09T17:32:59.798Z,17.44
2024-05-09T17:37:02.279Z,17.38
2024-05-09T17:41:04.765Z,17.31
2024-05-09T17:45:07.469Z,17.22
2024-05-09T17:49:09.863Z,17.17
2024-05-09T17:53:12.147Z,17.08
2024-05-09T17:57:14.363Z,17.03
2024-05-09T18:01:16.670Z,16.93
2024-05-09T18:05:19.073Z,16.82
2024-05-09T18:09:21.381Z,16.64
2024-05-09T18:13:23.750Z,16.43
2024-05-09T18:17:26.387Z,16.25
2024-05-09T18:21:28.802Z,16.05
2024-05-09T18:25:31.176Z,15.80
2024-05-09T18:29:33.439Z,15.53
2024-05-09T18:33:35.885Z,15.31
2024-05-09T18:37:42.948Z,15.07
2024-05-09T18:41:45.216Z,14.84
2024-05-09T18:45:47.779Z,14.70
2024-05-09T18:49:50.734Z,14.48
2024-05-09T18:53:55.131Z,14.30
2024-05-09T18:57:57.483Z,14.13
2024-05-09T19:01:59.939Z,14.06
2024-05-09T19:06:02.536Z,14.00
2024-05-09T19:10:07.483Z,13.95
2024-05-09T19:14:14.068Z,13.86
2024-05-09T19:18:17.278Z,13.76
2024-05-09T19:22:19.803Z,13.68
2024-05-09T19:26:25.470Z,13.58
2024-05-09T19:30:36.716Z,13.43
2024-05-09T19:34:43.121Z,13.35
2024-05-09T19:38:45.615Z,13.30
2024-05-09T19:42:47.866Z,13.12
2024-05-09T19:46:50.232Z,12.93
2024-05-09T19:50:53.283Z,12.68
2024-05-09T19:54:55.851Z,12.45
2024-05-09T19:58:58.134Z,12.37
2024-05-09T20:03:00.676Z,12.27
2024-05-09T20:07:03.105Z,12.08
2024-05-09T20:11:05.703Z,12.00
2024-05-09T20:15:08.476Z,11.86
2024-05-09T20:19:10.855Z,11.73
2024-05-09T20:23:13.827Z,11.65
2024-05-09T20:27:16.082Z,11.66
2024-05-09T20:31:23.061Z,11.61
2024-05-09T20:35:26.584Z,11.58
2024-05-09T20:39:28.925Z,11.52
2024-05-09T20:43:31.280Z,11.51
2024-05-09T20:47:33.580Z,11.45
2024-05-09T20:51:35.919Z,11.35
2024-05-09T20:55:38.893Z,11.15
2024-05-09T20:59:41.113Z,10.83
2024-05-09T21:03:43.784Z,10.72
2024-05-09T21:07:46.083Z,10.70
2024-05-09T21:11:48.386Z,10.66
2024-05-09T21:15:51.149Z,10.61
2024-05-09T21:19:53.535Z,10.49
2024-05-09T21:23:55.811Z,10.40
2024-05-09T21:27:58.652Z,10.32
2024-05-09T21:32:01.044Z,10.26
2024-05-09T21:36:03.344Z,10.17
2024-05-09T21:40:11.318Z,10.10
2024-05-09T21:44:16.043Z,9.98
2024-05-09T21:48:18.294Z,9.91
2024-05-09T21:52:20.671Z,9.90
2024-05-09T21:56:22.885Z,9.94
2024-05-09T22:00:32.893Z,9.97
2024-05-09T22:04:39.923Z,9.99
2024-05-09T22:08:42.530Z,9.88
2024-05-09T22:12:44.847Z,9.71
2024-05-09T22:16:47.164Z,9.53
2024-05-09T22:20:49.856Z,9.46
2024-05-09T22:24:52.145Z,9.30
2024-05-09T22:28:54.446Z,9.19
2024-05-09T22:32:56.768Z,9.12
2024-05-09T22:36:59.089Z,9.12
2024-05-09T22:41:01.609Z,9.05
2024-05-09T22:45:04.051Z,9.01
2024-05-09T22:49:07.050Z,8.88
2024-05-09T22:53:09.366Z,8.79
2024-05-09T22:57:11.578Z,8.65
2024-05-09T23:01:16.769Z,8.63
2024-05-09T23:05:19.203Z,8.69
2024-05-09T23:09:21.578Z,8.71
2024-05-09T23:13:23.879Z,8.65
2024-05-09T23:17:26.341Z,8.63
2024-05-09T23:21:28.642Z,8.59
2024-05-09T23:25:30.941Z,8.64
2024-05-09T23:29:33.199Z,8.65
2024-05-09T23:33:35.837Z,8.65
2024-05-09T23:37:38.175Z,8.50
2024-05-09T23:41:40.404Z,8.27
2024-05-09T23:45:43.337Z,8.20
2024-05-09T23:49:45.715Z,8.12
2024-05-09T23:53:48.030Z,8.03
2024-05-09T23:57:50.284Z,8.11
